Aviation Digital Data Service (ADDS)

Output produced by METARs form (0343 UTC 23 November 2017)
found at http://www.aviationweather.gov/adds/metars/
 
TAF TNCA 222143Z 2300/2324 08014KT 9999 SCT022 
     TEMPO 2302/2315 BKN014 PRPB30 2303/2315 5000 SHRA